sensor_id;sensor_type;location;lat;lon;timestamp;P1;durP1;ratioP1;P2;durP2;ratioP2
3355;SDS011;1691;52.486;13.374;2024-03-06T00:00:14;23.43;;;15.87;;
3355;SDS011;1691;52.486;13.374;2024-03-06T00:02:42;28.93;;;15.10;;
3355;SDS011;1691;52.486;13.374;2024-03-06T00:05:09;23.27;;;15.20;;
3355;SDS011;1691;52.486;13.374;2024-03-06T00:07:36;24.07;;;15.57;;
3355;SDS011;1691;52.486;13.374;2024-03-06T00:10:03;25.70;;;14.90;;
3355;SDS011;1691;52.486;13.374;2024-03-06T00:12:31;29.93;;;15.37;;
3355;SDS011;1691;52.486;13.374;2024-03-06T00:14:59;29.20;;;16.50;;
3355;SDS011;1691;52.486;13.374;2024-03-06T00:17:28;32.83;;;17.27;;
3355;SDS011;1691;52.486;13.374;2024-03-06T00:19:55;23.97;;;15.40;;
3355;SDS011;1691;52.486;13.374;2024-03-06T00:22:23;25.17;;;15.47;;
3355;SDS011;1691;52.486;13.374;2024-03-06T00:24:50;21.03;;;15.13;;
3355;SDS011;1691;52.486;13.374;2024-03-06T00:27:18;27.30;;;17.07;;
3355;SDS011;1691;52.486;13.374;2024-03-06T00:29:45;24.90;;;16.43;;
3355;SDS011;1691;52.486;13.374;2024-03-06T00:32:12;30.63;;;15.03;;
3355;SDS011;1691;52.486;13.374;2024-03-06T00:34:40;25.03;;;15.83;;
3355;SDS011;1691;52.486;13.374;2024-03-06T00:37:07;24.20;;;15.83;;
3355;SDS011;1691;52.486;13.374;2024-03-06T00:39:34;39.60;;;16.03;;
3355;SDS011;1691;52.486;13.374;2024-03-06T00:42:02;22.80;;;16.03;;
3355;SDS011;1691;52.486;13.374;2024-03-06T00:44:29;23.07;;;15.70;;
3355;SDS011;1691;52.486;13.374;2024-03-06T00:46:56;23.17;;;16.07;;
3355;SDS011;1691;52.486;13.374;2024-03-06T00:49:23;23.57;;;15.37;;
3355;SDS011;1691;52.486;13.374;2024-03-06T00:51:50;23.30;;;16.33;;
3355;SDS011;1691;52.486;13.374;2024-03-06T00:54:17;24.07;;;16.03;;
3355;SDS011;1691;52.486;13.374;2024-03-06T00:56:44;24.50;;;15.70;;
3355;SDS011;1691;52.486;13.374;2024-03-06T00:59:11;24.93;;;16.00;;
3355;SDS011;1691;52.486;13.374;2024-03-06T01:01:39;23.97;;;16.10;;
3355;SDS011;1691;52.486;13.374;2024-03-06T01:04:07;23.90;;;15.53;;
3355;SDS011;1691;52.486;13.374;2024-03-06T01:06:34;22.10;;;15.30;;
3355;SDS011;1691;52.486;13.374;2024-03-06T01:09:01;23.10;;;15.90;;
3355;SDS011;1691;52.486;13.374;2024-03-06T01:11:28;25.43;;;16.37;;
3355;SDS011;1691;52.486;13.374;2024-03-06T01:13:55;19.10;;;14.33;;
3355;SDS011;1691;52.486;13.374;2024-03-06T01:16:22;22.77;;;15.30;;
3355;SDS011;1691;52.486;13.374;2024-03-06T01:18:49;24.40;;;15.33;;
3355;SDS011;1691;52.486;13.374;2024-03-06T01:21:16;22.27;;;14.93;;
3355;SDS011;1691;52.486;13.374;2024-03-06T01:23:43;25.70;;;16.20;;
3355;SDS011;1691;52.486;13.374;2024-03-06T01:26:10;17.30;;;14.07;;
3355;SDS011;1691;52.486;13.374;2024-03-06T01:28:38;22.17;;;14.97;;
3355;SDS011;1691;52.486;13.374;2024-03-06T01:31:06;25.90;;;15.93;;
3355;SDS011;1691;52.486;13.374;2024-03-06T01:33:33;19.10;;;14.37;;
3355;SDS011;1691;52.486;13.374;2024-03-06T01:36:00;18.93;;;15.00;;
3355;SDS011;1691;52.486;13.374;2024-03-06T01:38:27;22.97;;;15.33;;
3355;SDS011;1691;52.486;13.374;2024-03-06T01:40:55;23.53;;;14.90;;
3355;SDS011;1691;52.486;13.374;2024-03-06T01:43:23;19.83;;;15.30;;
3355;SDS011;1691;52.486;13.374;2024-03-06T01:45:52;27.17;;;15.30;;
3355;SDS011;1691;52.486;13.374;2024-03-06T01:48:21;18.77;;;14.33;;
3355;SDS011;1691;52.486;13.374;2024-03-06T01:50:55;22.10;;;14.90;;
3355;SDS011;1691;52.486;13.374;2024-03-06T01:53:24;21.00;;;15.30;;
3355;SDS011;1691;52.486;13.374;2024-03-06T01:55:53;22.40;;;15.03;;
3355;SDS011;1691;52.486;13.374;2024-03-06T01:58:21;19.73;;;15.00;;
3355;SDS011;1691;52.486;13.374;2024-03-06T02:00:50;23.00;;;15.50;;
3355;SDS011;1691;52.486;13.374;2024-03-06T02:03:18;27.27;;;15.30;;
3355;SDS011;1691;52.486;13.374;2024-03-06T02:05:47;23.20;;;15.60;;
3355;SDS011;1691;52.486;13.374;2024-03-06T02:08:16;22.27;;;15.17;;
3355;SDS011;1691;52.486;13.374;2024-03-06T02:10:44;25.33;;;16.27;;
3355;SDS011;1691;52.486;13.374;2024-03-06T02:13:13;22.57;;;15.50;;
3355;SDS011;1691;52.486;13.374;2024-03-06T02:15:41;24.87;;;16.40;;
3355;SDS011;1691;52.486;13.374;2024-03-06T02:18:14;21.57;;;14.40;;
3355;SDS011;1691;52.486;13.374;2024-03-06T02:20:41;25.70;;;14.87;;
3355;SDS011;1691;52.486;13.374;2024-03-06T02:23:08;24.97;;;15.17;;
3355;SDS011;1691;52.486;13.374;2024-03-06T02:25:35;19.50;;;14.63;;
3355;SDS011;1691;52.486;13.374;2024-03-06T02:28:02;26.73;;;15.43;;
3355;SDS011;1691;52.486;13.374;2024-03-06T02:30:32;26.07;;;15.53;;
3355;SDS011;1691;52.486;13.374;2024-03-06T02:33:03;21.33;;;15.17;;
3355;SDS011;1691;52.486;13.374;2024-03-06T02:35:33;31.20;;;17.27;;
3355;SDS011;1691;52.486;13.374;2024-03-06T02:38:04;22.93;;;15.80;;
3355;SDS011;1691;52.486;13.374;2024-03-06T02:40:31;23.20;;;15.70;;
3355;SDS011;1691;52.486;13.374;2024-03-06T02:42:59;23.80;;;17.30;;
3355;SDS011;1691;52.486;13.374;2024-03-06T02:45:26;23.83;;;17.33;;
3355;SDS011;1691;52.486;13.374;2024-03-06T02:47:54;26.73;;;17.10;;
3355;SDS011;1691;52.486;13.374;2024-03-06T02:50:21;25.90;;;16.27;;
3355;SDS011;1691;52.486;13.374;2024-03-06T02:52:49;25.90;;;16.33;;
3355;SDS011;1691;52.486;13.374;2024-03-06T02:55:18;23.23;;;15.80;;
3355;SDS011;1691;52.486;13.374;2024-03-06T02:57:45;28.53;;;16.43;;
3355;SDS011;1691;52.486;13.374;2024-03-06T03:00:12;28.77;;;16.23;;
3355;SDS011;1691;52.486;13.374;2024-03-06T03:02:42;24.60;;;16.87;;
3355;SDS011;1691;52.486;13.374;2024-03-06T03:05:09;25.53;;;16.63;;
3355;SDS011;1691;52.486;13.374;2024-03-06T03:07:36;23.93;;;17.13;;
3355;SDS011;1691;52.486;13.374;2024-03-06T03:10:03;24.27;;;16.77;;
3355;SDS011;1691;52.486;13.374;2024-03-06T03:12:31;22.73;;;15.70;;
3355;SDS011;1691;52.486;13.374;2024-03-06T03:14:58;22.63;;;16.60;;
3355;SDS011;1691;52.486;13.374;2024-03-06T03:17:25;27.90;;;16.53;;
3355;SDS011;1691;52.486;13.374;2024-03-06T03:19:52;25.57;;;16.87;;
3355;SDS011;1691;52.486;13.374;2024-03-06T03:22:19;24.77;;;17.27;;
3355;SDS011;1691;52.486;13.374;2024-03-06T03:24:46;31.77;;;16.80;;
3355;SDS011;1691;52.486;13.374;2024-03-06T03:27:13;28.07;;;17.87;;
3355;SDS011;1691;52.486;13.374;2024-03-06T03:29:40;27.70;;;15.87;;
3355;SDS011;1691;52.486;13.374;2024-03-06T03:32:07;32.10;;;17.13;;
3355;SDS011;1691;52.486;13.374;2024-03-06T03:34:35;22.77;;;16.73;;
3355;SDS011;1691;52.486;13.374;2024-03-06T03:37:02;27.57;;;17.43;;
3355;SDS011;1691;52.486;13.374;2024-03-06T03:39:29;31.40;;;18.27;;
3355;SDS011;1691;52.486;13.374;2024-03-06T03:41:56;24.80;;;16.93;;
3355;SDS011;1691;52.486;13.374;2024-03-06T03:44:24;28.63;;;17.17;;
3355;SDS011;1691;52.486;13.374;2024-03-06T03:46:51;26.63;;;17.53;;
3355;SDS011;1691;52.486;13.374;2024-03-06T03:49:18;31.73;;;16.67;;
3355;SDS011;1691;52.486;13.374;2024-03-06T03:51:45;26.93;;;17.53;;
3355;SDS011;1691;52.486;13.374;2024-03-06T03:54:12;25.37;;;16.20;;
3355;SDS011;1691;52.486;13.374;2024-03-06T03:56:40;23.77;;;15.60;;
3355;SDS011;1691;52.486;13.374;2024-03-06T03:59:07;23.20;;;15.93;;
3355;SDS011;1691;52.486;13.374;2024-03-06T04:01:34;27.87;;;15.93;;
3355;SDS011;1691;52.486;13.374;2024-03-06T04:04:01;26.60;;;15.80;;
3355;SDS011;1691;52.486;13.374;2024-03-06T04:06:28;26.53;;;17.23;;
3355;SDS011;1691;52.486;13.374;2024-03-06T04:08:55;24.07;;;15.80;;
3355;SDS011;1691;52.486;13.374;2024-03-06T04:11:22;30.93;;;16.60;;
3355;SDS011;1691;52.486;13.374;2024-03-06T04:13:50;23.33;;;16.67;;
3355;SDS011;1691;52.486;13.374;2024-03-06T04:16:18;25.77;;;15.73;;
3355;SDS011;1691;52.486;13.374;2024-03-06T04:18:46;26.60;;;16.70;;
3355;SDS011;1691;52.486;13.374;2024-03-06T04:21:13;39.60;;;16.67;;
3355;SDS011;1691;52.486;13.374;2024-03-06T04:23:42;26.87;;;16.40;;
3355;SDS011;1691;52.486;13.374;2024-03-06T04:26:10;25.87;;;16.40;;
3355;SDS011;1691;52.486;13.374;2024-03-06T04:28:38;29.27;;;18.67;;
3355;SDS011;1691;52.486;13.374;2024-03-06T04:31:05;32.10;;;18.80;;
3355;SDS011;1691;52.486;13.374;2024-03-06T04:33:33;31.47;;;18.90;;
3355;SDS011;1691;52.486;13.374;2024-03-06T04:36:04;28.87;;;17.97;;
3355;SDS011;1691;52.486;13.374;2024-03-06T04:38:34;25.67;;;18.53;;
3355;SDS011;1691;52.486;13.374;2024-03-06T04:41:01;29.67;;;17.83;;
3355;SDS011;1691;52.486;13.374;2024-03-06T04:43:29;27.67;;;17.03;;
3355;SDS011;1691;52.486;13.374;2024-03-06T04:45:56;26.10;;;17.50;;
3355;SDS011;1691;52.486;13.374;2024-03-06T04:48:23;28.87;;;16.77;;
3355;SDS011;1691;52.486;13.374;2024-03-06T04:50:50;30.03;;;19.73;;
3355;SDS011;1691;52.486;13.374;2024-03-06T04:53:17;30.33;;;18.70;;
3355;SDS011;1691;52.486;13.374;2024-03-06T04:55:46;27.40;;;18.00;;
3355;SDS011;1691;52.486;13.374;2024-03-06T04:58:13;32.67;;;19.33;;
3355;SDS011;1691;52.486;13.374;2024-03-06T05:00:40;29.23;;;19.10;;
3355;SDS011;1691;52.486;13.374;2024-03-06T05:03:07;31.50;;;17.90;;
3355;SDS011;1691;52.486;13.374;2024-03-06T05:05:51;27.03;;;19.00;;
3355;SDS011;1691;52.486;13.374;2024-03-06T05:08:37;38.40;;;18.20;;
3355;SDS011;1691;52.486;13.374;2024-03-06T05:11:21;29.53;;;18.13;;
3355;SDS011;1691;52.486;13.374;2024-03-06T05:14:06;29.90;;;19.00;;
3355;SDS011;1691;52.486;13.374;2024-03-06T05:16:50;28.33;;;18.97;;
3355;SDS011;1691;52.486;13.374;2024-03-06T05:19:37;37.23;;;18.10;;
3355;SDS011;1691;52.486;13.374;2024-03-06T05:22:21;29.07;;;18.67;;
3355;SDS011;1691;52.486;13.374;2024-03-06T05:25:07;31.20;;;18.83;;
3355;SDS011;1691;52.486;13.374;2024-03-06T05:27:52;29.17;;;18.67;;
3355;SDS011;1691;52.486;13.374;2024-03-06T05:30:36;35.93;;;18.20;;
3355;SDS011;1691;52.486;13.374;2024-03-06T05:33:21;28.07;;;18.60;;
3355;SDS011;1691;52.486;13.374;2024-03-06T05:36:05;25.90;;;17.83;;
3355;SDS011;1691;52.486;13.374;2024-03-06T05:38:50;28.10;;;18.40;;
3355;SDS011;1691;52.486;13.374;2024-03-06T05:41:35;28.50;;;19.17;;
3355;SDS011;1691;52.486;13.374;2024-03-06T05:44:19;31.00;;;18.70;;
3355;SDS011;1691;52.486;13.374;2024-03-06T05:47:04;24.53;;;16.43;;
3355;SDS011;1691;52.486;13.374;2024-03-06T05:49:50;23.53;;;15.50;;
3355;SDS011;1691;52.486;13.374;2024-03-06T05:52:35;22.57;;;15.10;;
3355;SDS011;1691;52.486;13.374;2024-03-06T05:55:20;30.23;;;16.50;;
3355;SDS011;1691;52.486;13.374;2024-03-06T05:58:05;22.47;;;15.73;;
3355;SDS011;1691;52.486;13.374;2024-03-06T06:00:38;29.03;;;16.07;;
3355;SDS011;1691;52.486;13.374;2024-03-06T06:03:07;23.30;;;15.97;;
3355;SDS011;1691;52.486;13.374;2024-03-06T06:05:36;32.63;;;16.40;;
3355;SDS011;1691;52.486;13.374;2024-03-06T06:08:05;24.03;;;16.70;;
3355;SDS011;1691;52.486;13.374;2024-03-06T06:10:32;25.80;;;16.27;;
3355;SDS011;1691;52.486;13.374;2024-03-06T06:13:00;23.33;;;15.80;;
3355;SDS011;1691;52.486;13.374;2024-03-06T06:15:31;19.63;;;14.67;;
3355;SDS011;1691;52.486;13.374;2024-03-06T06:17:59;30.20;;;15.70;;
3355;SDS011;1691;52.486;13.374;2024-03-06T06:20:26;24.57;;;15.77;;
3355;SDS011;1691;52.486;13.374;2024-03-06T06:22:53;22.60;;;16.47;;
3355;SDS011;1691;52.486;13.374;2024-03-06T06:25:20;21.77;;;15.93;;
3355;SDS011;1691;52.486;13.374;2024-03-06T06:27:47;23.20;;;16.73;;
3355;SDS011;1691;52.486;13.374;2024-03-06T06:30:16;22.37;;;15.00;;
3355;SDS011;1691;52.486;13.374;2024-03-06T06:32:43;22.17;;;16.67;;
3355;SDS011;1691;52.486;13.374;2024-03-06T06:35:11;23.00;;;14.97;;
3355;SDS011;1691;52.486;13.374;2024-03-06T06:37:40;20.13;;;15.57;;
3355;SDS011;1691;52.486;13.374;2024-03-06T06:40:08;20.63;;;14.53;;
3355;SDS011;1691;52.486;13.374;2024-03-06T06:42:36;22.10;;;17.00;;
3355;SDS011;1691;52.486;13.374;2024-03-06T06:45:03;24.33;;;16.77;;
3355;SDS011;1691;52.486;13.374;2024-03-06T06:47:36;27.97;;;18.20;;
3355;SDS011;1691;52.486;13.374;2024-03-06T06:50:03;32.13;;;18.00;;
3355;SDS011;1691;52.486;13.374;2024-03-06T06:52:32;24.10;;;15.53;;
3355;SDS011;1691;52.486;13.374;2024-03-06T06:55:01;23.10;;;14.67;;
3355;SDS011;1691;52.486;13.374;2024-03-06T06:57:29;23.57;;;15.60;;
3355;SDS011;1691;52.486;13.374;2024-03-06T06:59:57;20.47;;;14.63;;
3355;SDS011;1691;52.486;13.374;2024-03-06T07:02:24;21.10;;;15.90;;
3355;SDS011;1691;52.486;13.374;2024-03-06T07:04:51;20.77;;;15.70;;
3355;SDS011;1691;52.486;13.374;2024-03-06T07:07:19;19.20;;;14.07;;
3355;SDS011;1691;52.486;13.374;2024-03-06T07:09:46;18.77;;;14.37;;
3355;SDS011;1691;52.486;13.374;2024-03-06T07:12:13;24.70;;;15.03;;
3355;SDS011;1691;52.486;13.374;2024-03-06T07:14:40;22.97;;;14.47;;
3355;SDS011;1691;52.486;13.374;2024-03-06T07:17:07;19.53;;;14.70;;
3355;SDS011;1691;52.486;13.374;2024-03-06T07:19:35;21.40;;;14.53;;
3355;SDS011;1691;52.486;13.374;2024-03-06T07:22:02;16.93;;;14.13;;
3355;SDS011;1691;52.486;13.374;2024-03-06T07:24:29;21.60;;;13.73;;
3355;SDS011;1691;52.486;13.374;2024-03-06T07:26:56;18.77;;;14.50;;
3355;SDS011;1691;52.486;13.374;2024-03-06T07:29:23;14.87;;;13.30;;
3355;SDS011;1691;52.486;13.374;2024-03-06T07:31:50;20.13;;;13.80;;
3355;SDS011;1691;52.486;13.374;2024-03-06T07:34:17;17.17;;;13.60;;
3355;SDS011;1691;52.486;13.374;2024-03-06T07:36:44;17.90;;;13.57;;
3355;SDS011;1691;52.486;13.374;2024-03-06T07:39:12;17.97;;;13.97;;
3355;SDS011;1691;52.486;13.374;2024-03-06T07:41:42;27.07;;;15.13;;
3355;SDS011;1691;52.486;13.374;2024-03-06T07:44:09;15.17;;;13.13;;
3355;SDS011;1691;52.486;13.374;2024-03-06T07:46:36;21.53;;;15.37;;
3355;SDS011;1691;52.486;13.374;2024-03-06T07:49:03;21.10;;;13.80;;
3355;SDS011;1691;52.486;13.374;2024-03-06T07:51:34;14.23;;;12.30;;
3355;SDS011;1691;52.486;13.374;2024-03-06T07:54:02;16.70;;;12.83;;
3355;SDS011;1691;52.486;13.374;2024-03-06T07:56:32;20.00;;;12.90;;
3355;SDS011;1691;52.486;13.374;2024-03-06T07:59:00;15.83;;;13.43;;
3355;SDS011;1691;52.486;13.374;2024-03-06T08:01:27;22.70;;;12.90;;
3355;SDS011;1691;52.486;13.374;2024-03-06T08:03:55;16.70;;;11.90;;
3355;SDS011;1691;52.486;13.374;2024-03-06T08:06:22;22.87;;;18.17;;
3355;SDS011;1691;52.486;13.374;2024-03-06T08:08:50;16.77;;;11.83;;
3355;SDS011;1691;52.486;13.374;2024-03-06T08:11:18;15.63;;;11.87;;
3355;SDS011;1691;52.486;13.374;2024-03-06T08:13:48;12.97;;;11.73;;
3355;SDS011;1691;52.486;13.374;2024-03-06T08:16:16;14.23;;;11.37;;
3355;SDS011;1691;52.486;13.374;2024-03-06T08:18:43;14.37;;;12.93;;
3355;SDS011;1691;52.486;13.374;2024-03-06T08:21:10;17.73;;;11.30;;
3355;SDS011;1691;52.486;13.374;2024-03-06T08:23:38;12.67;;;9.97;;
3355;SDS011;1691;52.486;13.374;2024-03-06T08:26:05;13.17;;;11.07;;
3355;SDS011;1691;52.486;13.374;2024-03-06T08:28:32;11.47;;;10.37;;
3355;SDS011;1691;52.486;13.374;2024-03-06T08:30:59;14.40;;;11.30;;
3355;SDS011;1691;52.486;13.374;2024-03-06T08:33:26;13.10;;;11.80;;
3355;SDS011;1691;52.486;13.374;2024-03-06T08:35:54;16.37;;;10.90;;
3355;SDS011;1691;52.486;13.374;2024-03-06T08:38:21;10.83;;;9.80;;
3355;SDS011;1691;52.486;13.374;2024-03-06T08:40:48;15.87;;;11.53;;
3355;SDS011;1691;52.486;13.374;2024-03-06T08:43:15;11.40;;;10.37;;
3355;SDS011;1691;52.486;13.374;2024-03-06T08:45:43;11.07;;;10.00;;
3355;SDS011;1691;52.486;13.374;2024-03-06T08:48:10;12.73;;;9.23;;
3355;SDS011;1691;52.486;13.374;2024-03-06T08:50:38;10.27;;;8.30;;
3355;SDS011;1691;52.486;13.374;2024-03-06T08:53:06;9.73;;;8.63;;
3355;SDS011;1691;52.486;13.374;2024-03-06T08:55:35;12.70;;;9.17;;
3355;SDS011;1691;52.486;13.374;2024-03-06T08:58:02;12.40;;;9.40;;
3355;SDS011;1691;52.486;13.374;2024-03-06T09:00:29;10.10;;;9.10;;
3355;SDS011;1691;52.486;13.374;2024-03-06T09:02:56;9.70;;;9.00;;
3355;SDS011;1691;52.486;13.374;2024-03-06T09:05:23;9.80;;;9.10;;
3355;SDS011;1691;52.486;13.374;2024-03-06T09:07:50;7.60;;;7.20;;
3355;SDS011;1691;52.486;13.374;2024-03-06T09:10:18;8.10;;;7.40;;
3355;SDS011;1691;52.486;13.374;2024-03-06T09:12:48;19.37;;;8.50;;
3355;SDS011;1691;52.486;13.374;2024-03-06T09:15:15;9.50;;;8.60;;
3355;SDS011;1691;52.486;13.374;2024-03-06T09:17:42;9.37;;;8.70;;
3355;SDS011;1691;52.486;13.374;2024-03-06T09:20:11;9.40;;;8.07;;
3355;SDS011;1691;52.486;13.374;2024-03-06T09:22:40;8.60;;;8.00;;
3355;SDS011;1691;52.486;13.374;2024-03-06T09:25:08;7.87;;;7.37;;
3355;SDS011;1691;52.486;13.374;2024-03-06T09:27:38;8.33;;;7.70;;
3355;SDS011;1691;52.486;13.374;2024-03-06T09:30:06;8.47;;;7.87;;
3355;SDS011;1691;52.486;13.374;2024-03-06T09:32:35;9.20;;;8.47;;
3355;SDS011;1691;52.486;13.374;2024-03-06T09:35:04;11.23;;;10.23;;
3355;SDS011;1691;52.486;13.374;2024-03-06T09:37:33;8.20;;;7.50;;
3355;SDS011;1691;52.486;13.374;2024-03-06T09:40:00;9.70;;;8.60;;
3355;SDS011;1691;52.486;13.374;2024-03-06T09:42:27;10.50;;;9.60;;
3355;SDS011;1691;52.486;13.374;2024-03-06T09:44:54;7.50;;;7.10;;
3355;SDS011;1691;52.486;13.374;2024-03-06T09:47:21;11.43;;;8.90;;
3355;SDS011;1691;52.486;13.374;2024-03-06T09:49:51;9.67;;;8.87;;
3355;SDS011;1691;52.486;13.374;2024-03-06T09:52:23;9.90;;;8.23;;
3355;SDS011;1691;52.486;13.374;2024-03-06T09:54:53;9.70;;;8.87;;
3355;SDS011;1691;52.486;13.374;2024-03-06T09:57:21;8.10;;;7.37;;
3355;SDS011;1691;52.486;13.374;2024-03-06T09:59:48;9.00;;;8.17;;
3355;SDS011;1691;52.486;13.374;2024-03-06T10:02:38;12.43;;;8.37;;
3355;SDS011;1691;52.486;13.374;2024-03-06T10:05:05;10.47;;;8.90;;
3355;SDS011;1691;52.486;13.374;2024-03-06T10:07:33;8.90;;;8.07;;
3355;SDS011;1691;52.486;13.374;2024-03-06T10:10:00;8.00;;;7.40;;
3355;SDS011;1691;52.486;13.374;2024-03-06T10:12:28;8.97;;;8.17;;
3355;SDS011;1691;52.486;13.374;2024-03-06T10:14:56;15.53;;;8.70;;
3355;SDS011;1691;52.486;13.374;2024-03-06T10:17:23;8.60;;;7.50;;
3355;SDS011;1691;52.486;13.374;2024-03-06T10:19:54;7.40;;;6.30;;
3355;SDS011;1691;52.486;13.374;2024-03-06T10:22:21;8.33;;;7.13;;
3355;SDS011;1691;52.486;13.374;2024-03-06T10:24:54;8.33;;;7.20;;
3355;SDS011;1691;52.486;13.374;2024-03-06T10:27:25;7.97;;;7.37;;
3355;SDS011;1691;52.486;13.374;2024-03-06T10:30:03;10.17;;;8.53;;
3355;SDS011;1691;52.486;13.374;2024-03-06T10:32:32;13.67;;;9.77;;
3355;SDS011;1691;52.486;13.374;2024-03-06T10:35:01;8.63;;;7.80;;
3355;SDS011;1691;52.486;13.374;2024-03-06T10:37:28;13.40;;;7.53;;
3355;SDS011;1691;52.486;13.374;2024-03-06T10:39:56;14.20;;;7.90;;
3355;SDS011;1691;52.486;13.374;2024-03-06T10:42:32;8.30;;;7.43;;
3355;SDS011;1691;52.486;13.374;2024-03-06T10:45:01;8.93;;;8.13;;
3355;SDS011;1691;52.486;13.374;2024-03-06T10:47:30;7.60;;;6.90;;
3355;SDS011;1691;52.486;13.374;2024-03-06T10:49:59;8.07;;;7.30;;
3355;SDS011;1691;52.486;13.374;2024-03-06T10:52:27;8.47;;;7.80;;
3355;SDS011;1691;52.486;13.374;2024-03-06T10:54:54;8.00;;;7.27;;
3355;SDS011;1691;52.486;13.374;2024-03-06T10:57:25;8.53;;;7.80;;
3355;SDS011;1691;52.486;13.374;2024-03-06T10:59:53;8.20;;;7.40;;
3355;SDS011;1691;52.486;13.374;2024-03-06T11:02:21;14.30;;;7.10;;
3355;SDS011;1691;52.486;13.374;2024-03-06T11:04:50;10.80;;;8.00;;
3355;SDS011;1691;52.486;13.374;2024-03-06T11:07:18;7.77;;;6.97;;
3355;SDS011;1691;52.486;13.374;2024-03-06T11:09:45;7.70;;;7.13;;
3355;SDS011;1691;52.486;13.374;2024-03-06T11:12:36;8.27;;;7.67;;
3355;SDS011;1691;52.486;13.374;2024-03-06T11:15:24;9.73;;;8.40;;
3355;SDS011;1691;52.486;13.374;2024-03-06T11:17:51;9.70;;;8.87;;
3355;SDS011;1691;52.486;13.374;2024-03-06T11:20:21;9.67;;;8.60;;
3355;SDS011;1691;52.486;13.374;2024-03-06T11:28:33;8.90;;;8.10;;
3355;SDS011;1691;52.486;13.374;2024-03-06T11:31:04;10.30;;;9.27;;
3355;SDS011;1691;52.486;13.374;2024-03-06T11:33:39;9.87;;;8.97;;
3355;SDS011;1691;52.486;13.374;2024-03-06T11:39:07;10.03;;;9.03;;
3355;SDS011;1691;52.486;13.374;2024-03-06T11:44:15;9.40;;;8.60;;
3355;SDS011;1691;52.486;13.374;2024-03-06T11:46:59;11.20;;;10.10;;
3355;SDS011;1691;52.486;13.374;2024-03-06T11:49:30;10.40;;;9.33;;
3355;SDS011;1691;52.486;13.374;2024-03-06T11:52:04;9.60;;;8.83;;
3355;SDS011;1691;52.486;13.374;2024-03-06T11:54:37;10.47;;;9.30;;
3355;SDS011;1691;52.486;13.374;2024-03-06T11:57:05;12.27;;;11.03;;
3355;SDS011;1691;52.486;13.374;2024-03-06T11:59:34;19.70;;;10.50;;
3355;SDS011;1691;52.486;13.374;2024-03-06T12:02:05;13.93;;;10.70;;
3355;SDS011;1691;52.486;13.374;2024-03-06T12:04:33;11.77;;;10.70;;
3355;SDS011;1691;52.486;13.374;2024-03-06T12:07:05;13.33;;;10.53;;
3355;SDS011;1691;52.486;13.374;2024-03-06T12:09:35;15.63;;;11.37;;
3355;SDS011;1691;52.486;13.374;2024-03-06T12:12:08;15.80;;;12.20;;
3355;SDS011;1691;52.486;13.374;2024-03-06T12:14:37;11.87;;;10.67;;
3355;SDS011;1691;52.486;13.374;2024-03-06T12:17:10;15.43;;;11.63;;
3355;SDS011;1691;52.486;13.374;2024-03-06T12:19:42;14.10;;;12.60;;
3355;SDS011;1691;52.486;13.374;2024-03-06T12:22:12;17.53;;;13.60;;
3355;SDS011;1691;52.486;13.374;2024-03-06T12:24:45;24.97;;;14.57;;
3355;SDS011;1691;52.486;13.374;2024-03-06T12:27:12;19.50;;;15.40;;
3355;SDS011;1691;52.486;13.374;2024-03-06T12:29:40;19.20;;;14.00;;
3355;SDS011;1691;52.486;13.374;2024-03-06T12:32:15;15.97;;;12.77;;
3355;SDS011;1691;52.486;13.374;2024-03-06T12:34:55;13.30;;;12.00;;
3355;SDS011;1691;52.486;13.374;2024-03-06T12:37:29;12.70;;;11.50;;
3355;SDS011;1691;52.486;13.374;2024-03-06T12:39:58;12.70;;;11.33;;
3355;SDS011;1691;52.486;13.374;2024-03-06T12:42:25;12.50;;;10.27;;
3355;SDS011;1691;52.486;13.374;2024-03-06T12:44:52;11.70;;;10.60;;
3355;SDS011;1691;52.486;13.374;2024-03-06T12:47:20;12.03;;;10.80;;
3355;SDS011;1691;52.486;13.374;2024-03-06T12:49:47;11.53;;;10.33;;
3355;SDS011;1691;52.486;13.374;2024-03-06T12:52:14;10.97;;;9.93;;
3355;SDS011;1691;52.486;13.374;2024-03-06T12:54:41;9.87;;;9.07;;
3355;SDS011;1691;52.486;13.374;2024-03-06T12:57:09;10.67;;;9.57;;
3355;SDS011;1691;52.486;13.374;2024-03-06T12:59:39;12.50;;;7.67;;
3355;SDS011;1691;52.486;13.374;2024-03-06T13:02:06;9.07;;;8.37;;
3355;SDS011;1691;52.486;13.374;2024-03-06T13:04:34;37.80;;;9.73;;
3355;SDS011;1691;52.486;13.374;2024-03-06T13:07:01;13.17;;;10.00;;
3355;SDS011;1691;52.486;13.374;2024-03-06T13:09:28;11.07;;;9.70;;
3355;SDS011;1691;52.486;13.374;2024-03-06T13:11:55;10.53;;;9.53;;
3355;SDS011;1691;52.486;13.374;2024-03-06T13:14:23;19.77;;;9.83;;
3355;SDS011;1691;52.486;13.374;2024-03-06T13:16:50;14.33;;;11.00;;
3355;SDS011;1691;52.486;13.374;2024-03-06T13:19:17;12.37;;;11.00;;
3355;SDS011;1691;52.486;13.374;2024-03-06T13:21:44;29.33;;;11.77;;
3355;SDS011;1691;52.486;13.374;2024-03-06T13:24:10;13.30;;;12.00;;
3355;SDS011;1691;52.486;13.374;2024-03-06T13:26:38;27.90;;;17.70;;
3355;SDS011;1691;52.486;13.374;2024-03-06T13:29:06;14.97;;;12.03;;
3355;SDS011;1691;52.486;13.374;2024-03-06T13:31:33;17.77;;;12.93;;
3355;SDS011;1691;52.486;13.374;2024-03-06T13:34:01;24.77;;;12.73;;
3355;SDS011;1691;52.486;13.374;2024-03-06T13:36:30;19.37;;;12.90;;
3355;SDS011;1691;52.486;13.374;2024-03-06T13:38:57;17.77;;;13.17;;
3355;SDS011;1691;52.486;13.374;2024-03-06T13:41:24;18.47;;;13.37;;
3355;SDS011;1691;52.486;13.374;2024-03-06T13:43:54;17.67;;;13.33;;
3355;SDS011;1691;52.486;13.374;2024-03-06T13:46:21;22.40;;;14.47;;
3355;SDS011;1691;52.486;13.374;2024-03-06T13:48:48;30.53;;;15.37;;
3355;SDS011;1691;52.486;13.374;2024-03-06T13:51:15;20.70;;;14.93;;
3355;SDS011;1691;52.486;13.374;2024-03-06T13:53:42;24.93;;;15.07;;
3355;SDS011;1691;52.486;13.374;2024-03-06T13:56:09;26.37;;;15.73;;
3355;SDS011;1691;52.486;13.374;2024-03-06T13:58:36;26.37;;;16.30;;
3355;SDS011;1691;52.486;13.374;2024-03-06T14:01:05;28.13;;;17.17;;
3355;SDS011;1691;52.486;13.374;2024-03-06T14:03:32;36.23;;;17.67;;
3355;SDS011;1691;52.486;13.374;2024-03-06T14:06:05;33.83;;;18.53;;
3355;SDS011;1691;52.486;13.374;2024-03-06T14:08:34;38.97;;;17.97;;
3355;SDS011;1691;52.486;13.374;2024-03-06T14:11:02;27.90;;;16.53;;
3355;SDS011;1691;52.486;13.374;2024-03-06T14:13:31;26.50;;;18.00;;
3355;SDS011;1691;52.486;13.374;2024-03-06T14:15:59;20.97;;;14.40;;
3355;SDS011;1691;52.486;13.374;2024-03-06T14:18:27;20.13;;;12.30;;
3355;SDS011;1691;52.486;13.374;2024-03-06T14:20:55;29.73;;;14.50;;
3355;SDS011;1691;52.486;13.374;2024-03-06T14:23:22;21.77;;;13.17;;
3355;SDS011;1691;52.486;13.374;2024-03-06T14:25:49;19.60;;;12.50;;
3355;SDS011;1691;52.486;13.374;2024-03-06T14:28:16;19.43;;;11.20;;
3355;SDS011;1691;52.486;13.374;2024-03-06T14:30:43;17.23;;;12.37;;
3355;SDS011;1691;52.486;13.374;2024-03-06T14:33:11;21.00;;;12.60;;
3355;SDS011;1691;52.486;13.374;2024-03-06T14:35:38;17.83;;;11.80;;
3355;SDS011;1691;52.486;13.374;2024-03-06T14:38:05;28.27;;;16.37;;
3355;SDS011;1691;52.486;13.374;2024-03-06T14:40:33;21.33;;;14.60;;
3355;SDS011;1691;52.486;13.374;2024-03-06T14:43:00;24.00;;;15.70;;
3355;SDS011;1691;52.486;13.374;2024-03-06T14:45:28;24.50;;;15.20;;
3355;SDS011;1691;52.486;13.374;2024-03-06T14:47:55;29.50;;;16.17;;
3355;SDS011;1691;52.486;13.374;2024-03-06T14:50:22;23.13;;;15.50;;
3355;SDS011;1691;52.486;13.374;2024-03-06T14:52:49;39.57;;;20.03;;
3355;SDS011;1691;52.486;13.374;2024-03-06T14:55:16;23.40;;;14.93;;
3355;SDS011;1691;52.486;13.374;2024-03-06T14:57:43;25.37;;;15.20;;
3355;SDS011;1691;52.486;13.374;2024-03-06T15:00:10;24.40;;;14.40;;